KELY/ELY METAR and TAF weather

Enter ICAO airport designator
Station Type Date Time Source
KELY METAR 2020/09/19 03:53 UTC NOAA

KELY 190353Z AUTO 18019G27KT 9SM OVC110 23/M03 A3008 RMK AO2 PK WND 18033/0255 SLP078 T02281033


Station Type Date Time Source
KELY Decoded METAR 2020/09/19 03:53 UTC NOAA

ELY AIRPORT (YELLAND FIELD), NV, United States (KELY) 39-18N 114-51W 1906M
Sep 18, 2020 - 11:53 PM EDT / 2020.09.19 0353 UTC
Wind: from the S (180 degrees) at 22 MPH (19 KT) gusting to 31 MPH (27 KT):0
Visibility: 9 mile(s):0
Sky conditions: overcast
Temperature: 73.0 F (22.8 C)
Dew Point: 26.1 F (-3.3 C)
Relative Humidity: 17%
Pressure (altimeter): 30.08 in. Hg (1018 hPa)
ob: KELY 190353Z AUTO 18019G27KT 9SM OVC110 23/M03 A3008 RMK AO2 PK WND 18033/0255 SLP078 T02281033
cycle: 4

Station Type Date Time Source
KELY TAF 2020/09/19 03:06 UTC NOAA

TAF
AMD KELY 190304Z 1903/1924 19020G40KT 5SM HZ SCT080 BKN110
FM190500 20011KT P6SM SCT060 BKN100
FM191900 24010G20KT 4SM HZ SCT110

Example: see airport list